South Tamworth, New Hampshire
Current Conditions -  °F | °C
As of 10:55 PM on Wednesday 22 Oct 2014 (Local Time) from KLCI Reporting Station
Overcast Overcast  
Wind Chill: 40°   Ceiling: 900
Heat Index: 46°   Visibility: 6mi
Dew Point: 43°   Wind: 15mph
Humidity: 87%   Direction: 50°NE
Pressure: 29.97"   Gusts: 28mph
Location:  43.82°N, 71.3°W
Report Text: KLCI 230255Z AUTO 05013G24KT 6SM OVC009 08/06 A2997 RMK AO1 57014
Loading
Personal Weather Stations






























Interactive Weather Map
Tropical Storm Tracking
New forecast layout! Learn more

10-Day Weather Forecast

Advertisements
Track Severe Weather on mobile